If you wish to contribute or participate in the discussions about articles you are invited to join SKYbrary as a registered user

 Actions

Shahid Sadooghi Airport

From SKYbrary Wiki

OIYY
Airport
ICAO: OIYY – IATA: AZD
Summary
Name Shahid Sadooghi Airport
Region Middle East
Territory Iran IR.gif
Location Yazd, Yazd Province
Serving Yazd
Elevation 1,235.659 m
4,054 ft1,235.659 m
Coordinates 31° 54' 5.48" N, 54° 17' 8.12" E
Runways
Designator Length Width Surface ROPS
13/31 4098 m13,444.882 ft
45 m147.638 ft
ASP /


METAR
Observation OIYY 111000Z 26014KT 9999 SCT030CB SCT035 23/04 Q1016
Station Yazd
Date/Time 11 April 2019 10:00:00
Wind direction 260°
Wind speed 14 kts
Lowest cloud amount scattered clouds
Temperature 23°C
Dew point 4°C
Humidity 29%
QNH 1016 hPa
Weather condition n/a

Airport located 8km4.32 nm
8,000 m
26,246.719 ft
west of the city of Yazd, Iran.

Climatology

Warm Desert climate (Köppen climate classification BWh). Very hot summers and cold winter nights; very little precipitation.

Maps

Terrain

Loading map...

Airport Layout

Loading map...


Accidents & Serious Incidents at or in vicinity of OIYY

None on SKYbrary